Time;durP1;ratioP1;P1;durP2;ratioP2;P2;SDS_P1;SDS_P2;PMS_P1;PMS_P2;Temp;Humidity;BMP_temperature;BMP_pressure;BME280_temperature;BME280_humidity;BME280_pressure;Samples;Min_cycle;Max_cycle;Signal;HPM_P1;HPM_P2
2023/03/13 00:02:09;;;;;;;41.47;9.00;;;9.90;99.90;;;;;;4901042;29;20045;-70
2023/03/13 00:04:34;;;;;;;38.97;8.60;;;9.90;99.90;;;;;;4901018;29;20044;-70
2023/03/13 00:07:00;;;;;;;46.10;9.48;;;9.90;99.90;;;;;;4884303;29;20041;-70
2023/03/13 00:09:26;;;;;;;35.63;8.93;;;9.90;99.90;;;;;;4904380;29;20459;-70
2023/03/13 00:11:51;;;;;;;47.60;9.15;;;9.90;99.90;;;;;;4904362;29;20339;-70
2023/03/13 00:14:17;;;;;;;38.35;10.40;;;9.90;99.90;;;;;;4904292;29;20095;-70
2023/03/13 00:16:43;;;;;;;46.67;10.27;;;9.90;99.90;;;;;;4904094;29;20052;-70
2023/03/13 00:19:12;;;;;;;38.40;9.73;;;9.90;99.90;;;;;;4903961;29;20124;-70
2023/03/13 00:21:39;;;;;;;45.97;10.80;;;9.80;99.90;;;;;;4903945;29;20075;-70
2023/03/13 00:24:06;;;;;;;38.05;9.60;;;9.90;99.90;;;;;;4903859;29;20037;-70
2023/03/13 00:26:32;;;;;;;50.63;11.00;;;10.00;99.90;;;;;;4903362;29;20104;-70
2023/03/13 00:28:58;;;;;;;40.10;10.13;;;9.90;99.90;;;;;;4904360;29;20371;-70
2023/03/13 00:31:27;;;;;;;45.42;10.90;;;9.70;99.90;;;;;;4902966;29;20320;-70
2023/03/13 00:33:57;;;;;;;43.22;10.02;;;9.60;99.90;;;;;;4904010;29;20146;-70
2023/03/13 00:36:25;;;;;;;47.38;11.43;;;9.70;99.90;;;;;;4887376;29;20053;-70
2023/03/13 00:38:52;;;;;;;52.97;11.30;;;9.70;99.90;;;;;;4903604;29;20045;-70
2023/03/13 00:41:24;;;;;;;34.15;10.50;;;9.70;99.90;;;;;;4903855;29;20041;-70
2023/03/13 00:43:50;;;;;;;50.78;11.52;;;9.60;99.90;;;;;;4903800;29;20088;-70
2023/03/13 00:46:18;;;;;;;46.40;10.93;;;9.60;99.90;;;;;;4903924;29;20045;-70
2023/03/13 00:48:44;;;;;;;49.85;11.20;;;9.50;99.90;;;;;;4903743;29;20036;-70
2023/03/13 00:51:10;;;;;;;40.50;10.82;;;9.60;99.90;;;;;;4903708;29;20096;-70
2023/03/13 00:53:35;;;;;;;45.70;11.20;;;9.60;99.90;;;;;;4903624;29;20047;-70
2023/03/13 00:56:07;;;;;;;44.53;11.80;;;9.60;99.90;;;;;;4903272;29;20053;-70
2023/03/13 00:58:38;;;;;;;38.70;10.88;;;9.50;99.90;;;;;;4886688;29;20052;-70
2023/03/13 01:01:14;;;;;;;41.35;10.63;;;9.50;99.90;;;;;;4903187;29;20055;-70
2023/03/13 01:03:41;;;;;;;;;;;9.50;99.90;;;;;;4903974;29;20127;-70
2023/03/13 01:06:10;;;;;;;46.58;11.88;;;9.50;99.90;;;;;;4903339;29;19924;-70
2023/03/13 01:08:36;;;;;;;48.05;11.02;;;9.50;99.90;;;;;;4903370;29;20097;-70
2023/03/13 01:11:10;;;;;;;42.55;10.60;;;9.50;99.90;;;;;;4903317;29;20486;-70
2023/03/13 01:13:36;;;;;;;45.95;12.25;;;9.60;99.90;;;;;;4903027;29;20444;-70
2023/03/13 01:16:14;;;;;;;37.88;11.30;;;9.60;99.90;;;;;;4903207;29;20127;-70
2023/03/13 01:18:42;;;;;;;38.00;11.00;;;9.70;99.90;;;;;;4902989;29;20083;-70
2023/03/13 01:21:08;;;;;;;43.72;11.95;;;9.70;99.90;;;;;;4903122;29;20056;-70
2023/03/13 01:23:34;;;;;;;46.80;11.93;;;9.60;99.90;;;;;;4902803;29;20049;-70
2023/03/13 01:26:00;;;;;;;46.63;11.93;;;9.60;99.90;;;;;;4902318;29;20055;-70
2023/03/13 01:28:26;;;;;;;47.40;12.02;;;9.60;99.90;;;;;;4902866;29;20040;-70
2023/03/13 01:30:52;;;;;;;43.78;11.65;;;9.70;99.90;;;;;;4902990;29;20419;-70
2023/03/13 01:33:18;;;;;;;45.88;12.00;;;9.60;99.90;;;;;;4902895;29;20096;-70
2023/03/13 01:35:44;;;;;;;39.40;11.20;;;9.70;99.90;;;;;;4902863;29;20049;-70
2023/03/13 01:38:10;;;;;;;42.78;11.90;;;9.60;99.90;;;;;;4902810;29;20057;-70
2023/03/13 01:40:44;;;;;;;41.92;12.48;;;9.60;99.90;;;;;;4902836;29;20132;-70
2023/03/13 01:43:23;;;;;;;42.72;13.05;;;9.70;99.90;;;;;;4886687;29;20315;-70
2023/03/13 01:46:04;;;;;;;32.60;11.00;;;9.70;99.90;;;;;;4886124;29;20100;-70
2023/03/13 01:48:52;;;;;;;47.15;12.82;;;9.60;99.90;;;;;;4902642;29;20045;-70
2023/03/13 01:51:27;;;;;;;32.17;11.55;;;9.70;99.90;;;;;;4902576;29;20044;-70
2023/03/13 01:54:14;;;;;;;48.47;11.98;;;9.60;99.90;;;;;;4902476;29;20052;-70
2023/03/13 01:57:03;;;;;;;;;;;9.60;99.90;;;;;;4885823;29;20076;-70
2023/03/13 01:59:43;;;;;;;42.67;12.85;;;9.60;99.90;;;;;;4875553;29;20310;-70
2023/03/13 02:02:09;;;;;;;42.47;11.82;;;9.60;99.90;;;;;;4902425;29;20064;-70
2023/03/13 02:04:38;;;;;;;43.15;11.73;;;9.50;99.90;;;;;;4902339;29;20335;-70
2023/03/13 02:07:11;;;;;;;39.05;11.82;;;9.50;99.90;;;;;;4902180;29;20085;-70
2023/03/13 02:09:38;;;;;;;43.75;12.25;;;9.60;99.90;;;;;;4902312;29;20128;-70
2023/03/13 02:12:07;;;;;;;47.50;11.70;;;9.60;99.90;;;;;;4902160;29;20041;-70
2023/03/13 02:14:36;;;;;;;32.38;11.30;;;9.50;99.90;;;;;;4901874;29;20537;-70
2023/03/13 02:17:04;;;;;;;36.15;11.10;;;9.50;99.90;;;;;;4902175;29;20080;-70
2023/03/13 02:19:45;;;;;;;38.22;12.15;;;9.60;99.90;;;;;;4902113;29;20062;-70
2023/03/13 02:22:28;;;;;;;31.83;11.73;;;9.60;99.90;;;;;;4901791;29;20051;-69
2023/03/13 02:25:24;;;;;;;47.38;13.35;;;9.50;99.90;;;;;;4902344;29;20047;-69
2023/03/13 02:27:56;;;;;;;35.50;13.35;;;9.50;99.90;;;;;;4901746;29;20454;-69
2023/03/13 02:30:22;;;;;;;41.15;13.10;;;9.50;99.90;;;;;;4901399;29;20131;-70
2023/03/13 02:32:49;;;;;;;40.55;14.30;;;9.60;99.90;;;;;;4901872;29;20033;-70
2023/03/13 02:35:18;;;;;;;40.72;13.57;;;9.60;99.90;;;;;;4901883;29;20048;-69
2023/03/13 02:37:48;;;;;;;37.72;12.60;;;9.60;99.90;;;;;;4901513;29;20435;-70
2023/03/13 02:40:19;;;;;;;34.40;13.18;;;9.60;99.90;;;;;;4901842;29;20040;-69
2023/03/13 02:42:46;;;;;;;30.13;12.80;;;9.60;99.90;;;;;;4902298;29;20051;-69
2023/03/13 02:45:16;;;;;;;31.50;12.73;;;9.60;99.90;;;;;;4901312;29;20049;-70
2023/03/13 02:47:42;;;;;;;28.92;12.98;;;9.70;99.90;;;;;;4884894;29;20080;-69
2023/03/13 02:50:08;;;;;;;36.33;14.30;;;9.60;99.90;;;;;;4901692;29;20112;-69
2023/03/13 02:52:43;;;;;;;26.92;13.20;;;9.70;99.90;;;;;;4901628;29;20111;-70
2023/03/13 02:55:16;;;;;;;25.27;13.18;;;9.80;99.90;;;;;;4901229;29;20048;-70
2023/03/13 02:57:43;;;;;;;25.63;13.23;;;9.70;99.90;;;;;;4901334;29;20498;-69
2023/03/13 03:00:11;;;;;;;28.92;12.48;;;9.70;99.90;;;;;;4901585;29;20040;-73
2023/03/13 03:02:38;;;;;;;26.30;13.45;;;9.80;99.90;;;;;;4885170;29;20316;-69
2023/03/13 03:05:04;;;;;;;24.58;12.85;;;9.70;99.90;;;;;;4901168;29;20451;-69
2023/03/13 03:07:30;;;;;;;25.35;13.55;;;9.70;99.90;;;;;;4901275;29;20040;-69
2023/03/13 03:09:56;;;;;;;18.77;12.20;;;9.90;99.90;;;;;;4901493;29;20330;-70
2023/03/13 03:12:21;;;;;;;26.30;12.55;;;9.80;99.90;;;;;;4901467;29;20044;-69
2023/03/13 03:14:47;;;;;;;23.02;12.35;;;9.70;99.90;;;;;;4901439;29;20048;-69
2023/03/13 03:17:13;;;;;;;18.80;12.43;;;9.70;99.90;;;;;;4901416;29;20044;-69
2023/03/13 03:19:38;;;;;;;18.80;12.80;;;9.60;99.90;;;;;;4901421;29;20044;-70
2023/03/13 03:22:04;;;;;;;17.50;11.93;;;9.70;99.90;;;;;;4901371;29;20055;-69
2023/03/13 03:24:30;;;;;;;20.90;12.48;;;9.80;99.90;;;;;;4901388;29;20044;-69
2023/03/13 03:26:55;;;;;;;20.75;13.60;;;9.70;99.90;;;;;;4900588;29;20064;-69
2023/03/13 03:29:21;;;;;;;16.75;12.68;;;9.80;99.90;;;;;;4901016;29;20081;-70
2023/03/13 03:31:47;;;;;;;23.52;14.10;;;9.80;99.90;;;;;;4901043;29;20123;-70
2023/03/13 03:34:12;;;;;;;20.38;13.45;;;9.90;99.90;;;;;;4901309;29;20048;-70
2023/03/13 03:36:38;;;;;;;16.25;13.00;;;10.00;99.90;;;;;;4901307;29;20051;-70
2023/03/13 03:39:04;;;;;;;19.83;13.63;;;10.00;99.90;;;;;;4901238;29;20045;-70
2023/03/13 03:41:30;;;;;;;15.57;12.85;;;10.00;99.90;;;;;;4901920;29;20458;-70
2023/03/13 03:43:56;;;;;;;13.82;12.27;;;10.00;99.90;;;;;;4904592;29;20044;-70
2023/03/13 03:46:21;;;;;;;18.88;13.18;;;9.90;99.90;;;;;;4904805;29;20041;-70
2023/03/13 03:48:47;;;;;;;14.88;13.20;;;10.00;99.90;;;;;;4904576;29;20052;-70
2023/03/13 03:51:13;;;;;;;13.32;11.88;;;10.00;99.90;;;;;;4904645;29;20040;-70
2023/03/13 03:53:38;;;;;;;12.35;11.07;;;10.00;99.90;;;;;;4887932;29;20136;-70
2023/03/13 03:56:04;;;;;;;19.15;11.90;;;10.00;99.90;;;;;;4904287;29;20084;-70
2023/03/13 03:58:30;;;;;;;16.08;12.85;;;10.00;99.90;;;;;;4887833;29;20055;-70
2023/03/13 04:00:57;;;;;;;15.88;11.90;;;10.10;99.90;;;;;;4904260;29;20036;-70
2023/03/13 04:03:23;;;;;;;13.23;11.90;;;10.20;99.90;;;;;;4904555;29;20327;-70
2023/03/13 04:05:48;;;;;;;16.85;12.85;;;10.20;99.90;;;;;;4904440;29;20083;-70
2023/03/13 04:08:15;;;;;;;13.30;12.00;;;10.20;99.90;;;;;;4904184;29;20442;-70
2023/03/13 04:10:40;;;;;;;14.75;13.23;;;10.20;99.90;;;;;;4904525;29;20041;-70
2023/03/13 04:13:06;;;;;;;19.25;11.93;;;10.30;99.90;;;;;;4904379;29;20116;-70
2023/03/13 04:15:32;;;;;;;16.00;10.77;;;10.40;99.90;;;;;;4904366;29;20438;-70
2023/03/13 04:17:58;;;;;;;14.52;10.23;;;10.40;99.90;;;;;;4904303;29;20334;-70
2023/03/13 04:20:23;;;;;;;16.10;11.35;;;10.40;99.90;;;;;;4904283;29;20045;-70
2023/03/13 04:22:49;;;;;;;11.68;10.00;;;10.50;99.90;;;;;;4904236;29;20123;-70
2023/03/13 04:25:15;;;;;;;13.60;9.65;;;10.40;99.90;;;;;;4903745;29;20493;-70
2023/03/13 04:27:40;;;;;;;9.32;8.52;;;10.40;99.90;;;;;;4903731;29;20056;-70
2023/03/13 04:30:07;;;;;;;13.82;10.30;;;10.50;99.90;;;;;;4904064;29;20341;-70
2023/03/13 04:32:33;;;;;;;18.95;11.65;;;10.50;99.90;;;;;;4904082;29;20112;-70
2023/03/13 04:34:58;;;;;;;18.95;12.02;;;10.60;99.90;;;;;;4903762;29;20135;-70
2023/03/13 04:37:24;;;;;;;19.40;12.63;;;10.60;99.90;;;;;;4903947;29;20041;-70
2023/03/13 04:39:50;;;;;;;22.33;12.00;;;10.70;99.90;;;;;;4903628;29;20360;-70
2023/03/13 04:42:16;;;;;;;22.25;13.45;;;10.70;99.90;;;;;;4903888;29;20134;-70
2023/03/13 04:44:41;;;;;;;23.08;13.20;;;10.80;99.90;;;;;;4903502;29;20116;-70
2023/03/13 04:47:07;;;;;;;20.77;12.98;;;10.80;99.90;;;;;;4903695;29;20052;-70
2023/03/13 04:49:33;;;;;;;21.02;12.73;;;10.80;99.90;;;;;;4903747;29;20044;-70
2023/03/13 04:51:59;;;;;;;20.70;13.18;;;10.90;99.90;;;;;;4903689;29;20048;-70
2023/03/13 04:54:25;;;;;;;23.02;13.50;;;10.90;99.90;;;;;;4903080;29;20334;-70
2023/03/13 04:56:50;;;;;;;24.77;13.60;;;10.90;99.90;;;;;;4903218;29;20131;-70
2023/03/13 04:59:16;;;;;;;32.67;15.48;;;10.90;99.90;;;;;;4903561;29;20064;-70
2023/03/13 05:01:42;;;;;;;29.42;14.88;;;11.00;99.90;;;;;;4903173;29;20391;-70
2023/03/13 05:04:08;;;;;;;25.90;14.00;;;11.00;99.90;;;;;;4903161;29;20045;-70
2023/03/13 05:06:34;;;;;;;24.20;13.15;;;11.00;99.90;;;;;;4903326;29;20323;-71
2023/03/13 05:09:00;;;;;;;24.60;14.10;;;11.10;99.90;;;;;;4903378;29;20043;-70
2023/03/13 05:11:26;;;;;;;24.20;13.40;;;11.10;99.90;;;;;;4903103;29;20431;-70
2023/03/13 05:13:52;;;;;;;21.20;13.82;;;11.20;99.90;;;;;;4903334;29;20032;-70
2023/03/13 05:16:18;;;;;;;28.20;14.18;;;11.20;99.90;;;;;;4886338;29;20052;-71
2023/03/13 05:18:43;;;;;;;27.90;15.05;;;11.20;99.90;;;;;;4903146;29;20048;-73
2023/03/13 05:21:09;;;;;;;28.55;17.13;;;11.20;99.90;;;;;;4902887;29;20427;-70
2023/03/13 05:23:35;;;;;;;27.88;17.35;;;11.30;99.90;;;;;;4902642;29;20498;-70
2023/03/13 05:26:00;;;;;;;24.55;17.73;;;11.30;99.90;;;;;;4902169;29;20057;-70
2023/03/13 05:28:26;;;;;;;35.28;19.27;;;11.30;99.90;;;;;;4902842;29;20127;-71
2023/03/13 05:30:52;;;;;;;26.50;18.13;;;11.40;99.90;;;;;;4902519;29;20127;-70
2023/03/13 05:33:21;;;;;;;30.95;18.75;;;11.50;99.90;;;;;;4902759;29;20036;-70
2023/03/13 05:35:46;;;;;;;32.35;18.08;;;11.50;99.90;;;;;;4902555;29;20107;-70
2023/03/13 05:38:13;;;;;;;29.88;16.80;;;11.50;99.90;;;;;;4902813;29;20048;-70
2023/03/13 05:40:39;;;;;;;26.00;16.92;;;11.50;99.90;;;;;;4902475;29;20422;-70
2023/03/13 05:43:05;;;;;;;25.08;17.63;;;11.60;99.90;;;;;;4902449;29;20048;-70
2023/03/13 05:45:30;;;;;;;24.63;17.13;;;11.60;99.90;;;;;;4902626;29;20044;-70
2023/03/13 05:47:59;;;;;;;24.73;16.77;;;11.60;99.90;;;;;;4902663;29;20072;-71
2023/03/13 05:50:25;;;;;;;21.38;17.25;;;11.60;99.90;;;;;;4902610;29;20091;-70
2023/03/13 05:52:51;;;;;;;23.75;19.35;;;11.70;99.90;;;;;;4902298;29;20157;-70
2023/03/13 05:55:18;;;;;;;26.83;20.98;;;11.70;99.90;;;;;;4902101;29;20080;-71
2023/03/13 05:57:47;;;;;;;23.80;19.63;;;11.70;99.90;;;;;;4902235;29;20048;-70
2023/03/13 06:00:15;;;;;;;27.00;20.83;;;11.70;99.90;;;;;;4902480;29;20099;-70
2023/03/13 06:02:42;;;;;;;27.60;20.58;;;11.70;99.90;;;;;;4902093;29;20505;-70
2023/03/13 06:05:08;;;;;;;32.13;21.23;;;11.70;99.90;;;;;;4901489;29;20040;-71
2023/03/13 06:07:34;;;;;;;26.10;20.90;;;11.70;99.90;;;;;;4902347;29;20043;-70
2023/03/13 06:09:59;;;;;;;30.58;20.73;;;11.80;99.90;;;;;;4902283;29;20115;-70
2023/03/13 06:12:25;;;;;;;33.17;22.17;;;11.70;99.90;;;;;;4902221;29;20091;-71
2023/03/13 06:14:51;;;;;;;29.35;21.67;;;11.70;99.90;;;;;;4902192;29;20044;-70
2023/03/13 06:17:16;;;;;;;27.30;21.60;;;11.70;99.90;;;;;;4901852;29;20048;-70
2023/03/13 06:19:42;;;;;;;26.67;20.73;;;11.70;99.90;;;;;;4902126;29;20044;-70
2023/03/13 06:22:08;;;;;;;25.35;22.63;;;11.70;99.90;;;;;;4901782;29;20454;-70
2023/03/13 06:24:33;;;;;;;27.95;22.35;;;11.70;99.90;;;;;;4901727;29;20138;-70
2023/03/13 06:26:59;;;;;;;25.98;23.23;;;11.70;99.90;;;;;;4901257;29;20140;-70
2023/03/13 06:29:25;;;;;;;29.80;23.73;;;11.80;99.90;;;;;;4885102;29;20123;-70
2023/03/13 06:31:51;;;;;;;32.08;23.90;;;11.80;99.90;;;;;;4900697;29;20040;-70
2023/03/13 06:34:17;;;;;;;29.75;25.27;;;11.80;99.90;;;;;;4901925;29;20104;-71
2023/03/13 06:36:43;;;;;;;28.15;22.20;;;11.80;99.90;;;;;;4885349;29;20040;-70
2023/03/13 06:39:10;;;;;;;33.25;23.08;;;11.80;99.90;;;;;;4901820;29;20048;-70
2023/03/13 06:41:36;;;;;;;25.80;22.55;;;11.90;99.90;;;;;;4901782;29;20040;-71
2023/03/13 06:44:02;;;;;;;28.67;24.65;;;11.90;99.90;;;;;;4901772;29;20312;-70
2023/03/13 06:46:28;;;;;;;29.90;27.05;;;11.90;99.90;;;;;;4901638;29;20082;-71
2023/03/13 06:48:54;;;;;;;28.23;25.35;;;11.90;99.90;;;;;;4901659;29;20070;-71
2023/03/13 06:51:21;;;;;;;31.75;25.88;;;11.90;99.90;;;;;;4885083;29;20423;-70
2023/03/13 06:53:47;;;;;;;28.83;25.27;;;11.90;99.90;;;;;;4901618;29;20040;-71
2023/03/13 06:56:13;;;;;;;41.90;27.15;;;11.90;99.90;;;;;;4900928;29;20048;-71
2023/03/13 06:58:39;;;;;;;29.63;26.45;;;11.90;99.90;;;;;;4901574;29;20056;-71
2023/03/13 07:01:07;;;;;;;29.88;24.98;;;11.90;99.90;;;;;;4901561;29;20336;-71
2023/03/13 07:03:33;;;;;;;33.88;24.85;;;12.00;99.90;;;;;;4901516;29;20131;-71
2023/03/13 07:05:59;;;;;;;29.70;26.50;;;12.00;99.90;;;;;;4901155;29;20048;-71
2023/03/13 07:08:26;;;;;;;31.33;25.23;;;12.00;99.90;;;;;;4901451;29;20037;-71
2023/03/13 07:10:52;;;;;;;31.00;24.55;;;12.00;99.90;;;;;;4901487;29;20041;-71
2023/03/13 07:13:20;;;;;;;28.48;24.50;;;12.00;99.90;;;;;;4901173;29;20044;-71
2023/03/13 07:15:47;;;;;;;26.67;22.88;;;12.00;99.90;;;;;;4901462;29;20049;-71
2023/03/13 07:18:13;;;;;;;28.55;21.95;;;12.00;99.90;;;;;;4905222;29;20045;-71
2023/03/13 07:20:38;;;;;;;27.73;21.55;;;12.00;99.90;;;;;;4905305;29;20047;-71
2023/03/13 07:23:04;;;;;;;26.23;21.98;;;12.00;99.90;;;;;;4905257;29;20076;-72
2023/03/13 07:25:30;;;;;;;31.65;23.67;;;12.00;99.90;;;;;;4887991;29;20048;-71
2023/03/13 07:27:56;;;;;;;32.28;24.30;;;12.10;99.90;;;;;;4905184;29;20108;-71
2023/03/13 07:30:21;;;;;;;24.10;21.83;;;12.10;99.90;;;;;;4905167;29;20083;-71
2023/03/13 07:32:47;;;;;;;26.35;23.52;;;12.10;99.90;;;;;;4905112;29;20494;-71
2023/03/13 07:35:13;;;;;;;28.40;21.45;;;12.10;99.90;;;;;;4905085;29;20067;-71
2023/03/13 07:37:38;;;;;;;26.58;21.77;;;12.10;99.90;;;;;;4905024;29;20141;-71
2023/03/13 07:40:05;;;;;;;27.33;22.45;;;12.10;99.90;;;;;;4904996;29;20037;-71
2023/03/13 07:42:30;;;;;;;26.35;22.38;;;12.20;99.90;;;;;;4904680;29;20044;-71
2023/03/13 07:44:56;;;;;;;24.83;22.38;;;12.20;99.90;;;;;;4904924;29;20052;-71
2023/03/13 07:47:22;;;;;;;27.23;24.02;;;12.10;99.90;;;;;;4904785;29;20051;-71
2023/03/13 07:49:47;;;;;;;32.22;26.50;;;12.10;99.90;;;;;;4904545;29;20083;-71
2023/03/13 07:52:13;;;;;;;28.83;25.80;;;12.10;99.90;;;;;;4904769;29;20052;-71
2023/03/13 07:54:39;;;;;;;30.92;27.70;;;12.10;99.90;;;;;;4904673;29;20478;-71
2023/03/13 07:57:04;;;;;;;33.67;27.83;;;12.10;99.90;;;;;;4904303;29;20044;-71
2023/03/13 07:59:30;;;;;;;32.78;29.60;;;12.10;99.90;;;;;;4904332;29;20045;-71
2023/03/13 08:01:56;;;;;;;30.88;27.75;;;12.00;99.90;;;;;;4886181;29;20070;-70
2023/03/13 08:04:21;;;;;;;31.52;28.63;;;12.00;99.90;;;;;;4875411;29;20105;-70
2023/03/13 08:06:47;;;;;;;31.85;28.90;;;12.00;99.90;;;;;;4878273;29;20033;-69
2023/03/13 08:09:13;;;;;;;30.02;27.25;;;12.00;99.90;;;;;;4877554;29;20073;-72
2023/03/13 08:11:40;;;;;;;29.42;26.42;;;11.90;99.90;;;;;;4876733;29;20041;-70
2023/03/13 08:14:06;;;;;;;28.08;26.00;;;11.90;99.90;;;;;;4876887;29;20106;-69
2023/03/13 08:16:33;;;;;;;28.98;26.33;;;11.90;99.90;;;;;;4884661;29;20120;-68
2023/03/13 08:19:00;;;;;;;28.08;25.65;;;11.90;99.90;;;;;;4885613;29;20052;-69
2023/03/13 08:21:28;;;;;;;27.70;25.05;;;11.90;99.90;;;;;;4885568;29;20355;-69
2023/03/13 08:24:00;;;;;;;27.08;24.20;;;11.90;99.90;;;;;;4885250;29;20059;-72
2023/03/13 08:26:28;;;;;;;24.95;22.63;;;12.00;99.90;;;;;;4884743;29;20128;-69
2023/03/13 08:28:59;;;;;;;23.40;21.55;;;11.90;99.90;;;;;;4884527;29;20080;-67
2023/03/13 08:31:34;;;;;;;24.63;22.60;;;12.00;99.90;;;;;;4885463;29;20072;-66
2023/03/13 08:34:00;;;;;;;20.40;18.60;;;12.10;99.90;;;;;;4885449;29;20082;-67
2023/03/13 08:36:27;;;;;;;22.02;19.85;;;12.10;99.90;;;;;;4885241;29;20080;-67
2023/03/13 08:38:56;;;;;;;18.40;16.83;;;12.20;99.90;;;;;;4885489;29;20447;-67
2023/03/13 08:41:28;;;;;;;17.13;15.50;;;12.20;99.90;;;;;;4868535;29;20045;-66
2023/03/13 08:43:55;;;;;;;12.48;10.98;;;12.40;99.90;;;;;;4868737;29;20040;-66
2023/03/13 08:46:22;;;;;;;12.13;8.35;;;12.40;99.90;;;;;;4885037;29;20053;-67
2023/03/13 08:48:52;;;;;;;12.88;11.77;;;12.40;99.90;;;;;;4885041;29;20037;-67
2023/03/13 08:51:20;;;;;;;8.52;7.78;;;12.60;99.90;;;;;;4868641;29;20048;-66
2023/03/13 08:53:46;;;;;;;8.07;7.03;;;12.70;99.90;;;;;;4885059;29;20036;-67
2023/03/13 08:56:14;;;;;;;8.57;7.25;;;12.60;99.90;;;;;;4884201;29;20045;-67
2023/03/13 08:58:40;;;;;;;10.20;8.70;;;12.60;99.90;;;;;;4884541;29;20044;-67
2023/03/13 09:01:09;;;;;;;12.13;5.97;;;12.80;99.90;;;;;;4878515;29;20102;-67
2023/03/13 09:03:35;;;;;;;7.93;7.10;;;12.80;99.90;;;;;;4866263;29;20077;-67
2023/03/13 09:06:01;;;;;;;9.13;5.88;;;12.90;99.90;;;;;;4865813;29;20088;-67
2023/03/13 09:08:28;;;;;;;9.95;5.43;;;13.00;99.90;;;;;;4866148;29;20048;-67
2023/03/13 09:11:05;;;;;;;12.07;6.50;;;13.10;99.90;;;;;;4866077;29;20054;-66
2023/03/13 09:13:34;;;;;;;8.73;6.30;;;13.30;99.90;;;;;;4865853;29;20053;-77
2023/03/13 09:16:12;;;;;;;8.98;4.97;;;13.30;99.90;;;;;;4894979;29;20048;-69
2023/03/13 09:18:38;;;;;;;8.55;5.60;;;13.30;99.90;;;;;;4902181;29;20052;-67
2023/03/13 09:21:07;;;;;;;7.55;4.07;;;13.20;99.90;;;;;;4903162;29;20044;-67
2023/03/13 09:23:33;;;;;;;10.45;5.65;;;13.10;99.90;;;;;;4897533;29;20462;-69
2023/03/13 09:25:59;;;;;;;10.95;5.80;;;13.00;99.90;;;;;;4868438;29;20077;-67
2023/03/13 09:28:26;;;;;;;10.30;7.95;;;12.90;99.90;;;;;;4883908;29;20057;-67
2023/03/13 09:30:52;;;;;;;13.82;7.35;;;12.90;99.90;;;;;;4857135;29;20106;-67
2023/03/13 09:33:19;;;;;;;15.65;6.70;;;12.80;99.90;;;;;;4881540;29;20089;-67
2023/03/13 09:35:49;;;;;;;12.23;6.78;;;12.70;99.90;;;;;;4883248;29;20342;-67
2023/03/13 09:38:19;;;;;;;16.25;5.85;;;12.60;99.90;;;;;;4884062;29;20045;-67
2023/03/13 09:40:48;;;;;;;16.70;5.82;;;12.60;99.90;;;;;;4883812;29;20076;-67
2023/03/13 09:43:38;;;;;;;15.02;5.88;;;12.60;99.90;;;;;;4883811;29;20049;-67
2023/03/13 09:46:12;;;;;;;16.52;6.47;;;12.60;99.90;;;;;;4883863;29;20093;-67
2023/03/13 09:48:50;;;;;;;20.65;8.73;;;12.70;99.90;;;;;;4874487;29;20048;-67
2023/03/13 09:51:35;;;;;;;19.38;10.32;;;12.60;99.90;;;;;;4864949;29;20514;-67
2023/03/13 09:54:21;;;;;;;17.15;12.13;;;12.60;99.90;;;;;;4881072;29;20083;-67
2023/03/13 09:56:56;;;;;;;14.00;9.18;;;12.60;99.90;;;;;;4883274;29;20120;-66
2023/03/13 09:59:28;;;;;;;15.00;6.63;;;12.70;99.90;;;;;;4867287;29;20045;-67
2023/03/13 10:01:56;;;;;;;14.50;6.63;;;12.60;99.90;;;;;;4866821;29;20136;-70
2023/03/13 10:04:43;;;;;;;18.38;6.45;;;12.80;99.90;;;;;;4882661;29;20053;-67
2023/03/13 10:07:11;;;;;;;15.25;5.22;;;12.90;99.90;;;;;;4883609;29;20049;-67
2023/03/13 10:09:39;;;;;;;15.30;5.38;;;13.10;99.90;;;;;;4883376;29;20052;-67
2023/03/13 10:12:11;;;;;;;17.77;3.85;;;13.30;99.90;;;;;;4867000;29;20097;-67
2023/03/13 10:14:59;;;;;;;12.60;3.40;;;13.50;99.90;;;;;;4883640;29;20056;-68
2023/03/13 10:17:30;;;;;;;18.15;3.28;;;13.70;99.90;;;;;;4883264;29;20051;-68
2023/03/13 10:20:20;;;;;;;13.32;2.75;;;13.70;99.90;;;;;;4883196;29;20049;-72
2023/03/13 10:22:51;;;;;;;18.52;3.28;;;13.80;99.90;;;;;;4870410;29;20128;-70
2023/03/13 10:25:22;;;;;;;14.73;2.75;;;13.90;99.90;;;;;;4883073;29;20085;-68
2023/03/13 10:27:49;;;;;;;11.90;2.63;;;13.90;99.90;;;;;;4864458;29;20060;-68
2023/03/13 10:30:23;;;;;;;15.90;2.53;;;14.10;99.90;;;;;;4864743;29;20072;-69
2023/03/13 10:32:49;;;;;;;14.30;2.50;;;14.30;99.90;;;;;;4848040;29;20045;-70
2023/03/13 10:35:31;;;;;;;19.60;3.40;;;14.10;99.90;;;;;;4847999;29;20048;-70
2023/03/13 10:38:12;;;;;;;15.40;2.92;;;14.00;99.90;;;;;;4864656;29;20049;-69
2023/03/13 10:40:39;;;;;;;19.30;3.15;;;13.90;99.90;;;;;;4864391;29;20037;-69
2023/03/13 10:43:27;;;;;;;15.60;2.90;;;14.00;99.90;;;;;;4864536;29;20038;-69
2023/03/13 10:45:52;;;;;;;24.55;3.03;;;14.10;99.90;;;;;;4863882;29;20087;-69
2023/03/13 10:48:29;;;;;;;20.55;3.53;;;14.00;99.90;;;;;;4818241;29;20046;-68
2023/03/13 10:50:58;;;;;;;17.35;3.03;;;14.10;99.90;;;;;;4864076;29;20044;-68
2023/03/13 10:53:32;;;;;;;17.17;2.72;;;14.10;99.90;;;;;;4864449;29;20080;-68
2023/03/13 10:56:05;;;;;;;18.15;3.53;;;14.00;99.90;;;;;;4864031;29;20050;-68
2023/03/13 10:58:56;;;;;;;22.20;3.13;;;13.80;99.90;;;;;;4864551;29;20053;-68
2023/03/13 11:01:23;;;;;;;19.67;3.53;;;13.90;99.90;;;;;;4845899;29;20053;-68
2023/03/13 11:03:51;;;;;;;16.35;3.17;;;13.90;99.90;;;;;;4864344;29;20109;-69
2023/03/13 11:06:36;;;;;;;19.77;2.72;;;13.90;99.90;;;;;;4847562;29;20045;-69
2023/03/13 11:09:02;;;;;;;17.52;2.53;;;14.00;99.90;;;;;;4864332;29;20045;-69
2023/03/13 11:11:29;;;;;;;21.58;2.92;;;14.10;99.90;;;;;;4863921;29;20045;-69
2023/03/13 11:14:08;;;;;;;11.05;3.08;;;14.10;99.90;;;;;;4863917;29;20425;-69
2023/03/13 11:16:44;;;;;;;13.27;2.78;;;14.20;99.90;;;;;;4864675;29;20056;-68
2023/03/13 11:19:13;;;;;;;22.73;3.30;;;14.00;99.90;;;;;;4864284;29;20120;-69
2023/03/13 11:21:41;;;;;;;14.05;2.40;;;14.00;99.90;;;;;;4864324;29;20050;-68
2023/03/13 11:24:16;;;;;;;14.10;2.38;;;14.00;99.90;;;;;;4864183;29;20310;-68
2023/03/13 11:27:03;;;;;;;14.80;2.85;;;14.10;99.90;;;;;;4874091;29;20448;-68
2023/03/13 11:29:59;;;;;;;14.50;2.55;;;14.00;99.90;;;;;;4882828;29;20045;-68
2023/03/13 11:32:36;;;;;;;15.95;2.90;;;14.10;99.90;;;;;;4882254;29;20454;-68
2023/03/13 11:35:19;;;;;;;18.55;2.80;;;14.10;99.90;;;;;;4882719;29;20112;-68
2023/03/13 11:37:45;;;;;;;14.00;2.58;;;14.10;99.90;;;;;;4882694;29;20048;-68
2023/03/13 11:40:28;;;;;;;14.63;3.05;;;14.00;99.90;;;;;;4865987;29;20053;-69
2023/03/13 11:43:12;;;;;;;14.85;2.83;;;14.10;99.90;;;;;;4882945;29;20077;-68
2023/03/13 11:46:09;;;;;;;12.30;2.55;;;14.20;99.90;;;;;;4882563;29;20052;-68
2023/03/13 11:48:45;;;;;;;12.25;2.20;;;14.60;99.90;;;;;;4882298;29;20045;-68
2023/03/13 11:51:33;;;;;;;14.68;2.17;;;14.50;99.90;;;;;;4873205;29;20057;-69
2023/03/13 11:54:20;;;;;;;7.53;2.00;;;14.50;99.90;;;;;;4880252;29;20045;-69
2023/03/13 11:57:05;;;;;;;9.93;1.58;;;14.60;99.90;;;;;;4879957;29;20057;-68
2023/03/13 11:59:48;;;;;;;7.30;2.00;;;14.60;99.90;;;;;;4882078;29;20056;-69
2023/03/13 12:02:26;;;;;;;8.95;1.48;;;14.60;99.90;;;;;;4881042;29;20105;-67
2023/03/13 12:05:08;;;;;;;10.00;1.95;;;14.60;99.90;;;;;;4885093;29;20047;-68
2023/03/13 12:07:46;;;;;;;10.30;2.47;;;14.50;99.90;;;;;;4885736;29;20331;-68
2023/03/13 12:10:16;;;;;;;11.48;2.10;;;14.50;99.90;;;;;;4868807;29;20059;-70
2023/03/13 12:12:48;;;;;;;14.30;2.22;;;14.50;99.90;;;;;;4866777;29;20117;-68
2023/03/13 12:15:22;;;;;;;11.55;1.90;;;14.70;99.90;;;;;;4882702;29;20128;-67
2023/03/13 12:17:55;;;;;;;13.73;2.13;;;14.70;99.90;;;;;;4885086;29;20344;-68
2023/03/13 12:20:20;;;;;;;13.63;2.00;;;14.60;99.90;;;;;;4885416;29;20095;-67
2023/03/13 12:22:52;;;;;;;12.98;2.00;;;14.80;99.90;;;;;;4885329;29;20081;-68
2023/03/13 12:25:44;;;;;;;16.80;2.25;;;14.80;99.90;;;;;;4867091;29;20053;-68
2023/03/13 12:28:27;;;;;;;16.75;2.80;;;14.90;99.90;;;;;;4885182;29;20145;-68
2023/03/13 12:31:19;;;;;;;16.15;2.65;;;14.70;99.90;;;;;;4869037;29;20056;-68
2023/03/13 12:33:58;;;;;;;18.13;2.90;;;14.70;99.90;;;;;;4885406;29;20049;-68
2023/03/13 12:36:39;;;;;;;15.73;2.83;;;14.70;99.90;;;;;;4882686;29;20081;-69
2023/03/13 12:39:34;;;;;;;15.32;2.67;;;14.70;99.90;;;;;;4865649;29;20129;-70
2023/03/13 12:42:06;;;;;;;20.15;3.13;;;14.70;99.90;;;;;;4867196;29;20053;-70
2023/03/13 12:44:33;;;;;;;16.58;2.75;;;14.90;99.90;;;;;;4866440;29;20089;-71
2023/03/13 12:47:13;;;;;;;20.15;3.42;;;14.90;99.90;;;;;;4866502;29;20120;-71